Time;durP1;ratioP1;P1;durP2;ratioP2;P2;SDS_P1;SDS_P2;PMS_P1;PMS_P2;Temp;Humidity;BMP_temperature;BMP_pressure;BME280_temperature;BME280_humidity;BME280_pressure;Samples;Min_cycle;Max_cycle;Signal;HPM_P1;HPM_P2
2022/07/27 00:00:30;;;;;;;0.00;0.00;;;25.20;49.00;;;;;;5076317;28;20059;-76
2022/07/27 00:02:56;;;;;;;0.00;0.00;;;25.10;48.80;;;;;;5080669;28;20024;-75
2022/07/27 00:05:22;;;;;;;0.15;0.15;;;25.00;49.20;;;;;;5095831;28;20024;-75
2022/07/27 00:07:49;;;;;;;20.98;19.75;;;25.10;49.10;;;;;;5077764;28;20037;-75
2022/07/27 00:10:15;;;;;;;0.00;0.00;;;25.40;48.20;;;;;;5066486;28;20112;-75
2022/07/27 00:12:41;;;;;;;1.98;1.85;;;25.70;47.40;;;;;;5095946;28;20031;-75
2022/07/27 00:15:09;;;;;;;0.00;0.00;;;25.90;46.70;;;;;;5096351;28;20028;-75
2022/07/27 00:17:35;;;;;;;0.00;0.00;;;26.00;46.70;;;;;;5103219;28;20266;-76
2022/07/27 00:20:01;;;;;;;0.00;0.00;;;26.20;46.20;;;;;;5103399;28;20016;-75
2022/07/27 00:22:27;;;;;;;0.00;0.00;;;26.20;47.10;;;;;;5080227;28;20129;-76
2022/07/27 00:24:53;;;;;;;0.45;0.45;;;26.10;47.60;;;;;;5104731;28;20128;-76
2022/07/27 00:27:19;;;;;;;0.00;0.00;;;26.00;48.40;;;;;;5102837;28;20645;-74
2022/07/27 00:29:45;;;;;;;0.00;0.00;;;26.00;48.70;;;;;;5089971;28;20052;-77
2022/07/27 00:32:12;;;;;;;0.00;0.00;;;26.00;49.00;;;;;;5085396;28;20035;-75
2022/07/27 00:34:38;;;;;;;0.00;0.00;;;25.90;49.50;;;;;;5084861;28;20028;-74
2022/07/27 00:37:04;;;;;;;11.43;5.65;;;25.90;49.60;;;;;;5089064;28;20039;-74
2022/07/27 00:39:30;;;;;;;0.00;0.00;;;26.00;49.80;;;;;;5084160;28;20052;-74
2022/07/27 00:41:57;;;;;;;0.00;0.00;;;26.20;48.70;;;;;;5096709;28;20016;-74
2022/07/27 00:44:31;;;;;;;0.00;0.00;;;26.30;48.80;;;;;;5077879;28;20077;-74
2022/07/27 00:46:58;;;;;;;0.00;0.00;;;26.40;48.40;;;;;;5095970;28;20024;-75
2022/07/27 00:49:28;;;;;;;0.00;0.00;;;26.50;48.20;;;;;;5095552;28;20032;-75
2022/07/27 00:51:54;;;;;;;0.00;0.00;;;26.70;48.80;;;;;;5095447;28;20027;-75
2022/07/27 00:54:21;;;;;;;0.00;0.00;;;27.20;48.00;;;;;;5076995;28;20027;-75
2022/07/27 00:56:48;;;;;;;0.00;0.00;;;27.80;47.20;;;;;;5095062;28;20525;-75
2022/07/27 00:59:14;;;;;;;0.00;0.00;;;28.30;47.00;;;;;;5105991;28;20043;-75
2022/07/27 01:01:41;;;;;;;0.20;0.20;;;28.80;46.20;;;;;;5091886;28;20020;-75
2022/07/27 01:04:07;;;;;;;0.00;0.00;;;28.90;46.60;;;;;;5095175;28;20110;-75
2022/07/27 01:06:34;;;;;;;0.00;0.00;;;29.10;46.30;;;;;;5076885;28;20472;-75
2022/07/27 01:11:47;;;;;;;0.00;0.00;;;29.30;44.20;;;;;;5091889;28;20103;-76
2022/07/27 01:14:14;;;;;;;0.05;0.05;;;29.50;44.80;;;;;;5072844;28;20024;-76
2022/07/27 01:16:41;;;;;;;0.00;0.00;;;29.70;44.20;;;;;;5082417;28;20028;-75
2022/07/27 01:19:12;;;;;;;13.50;5.88;;;30.00;44.80;;;;;;5073243;28;20020;-75
2022/07/27 01:21:38;;;;;;;0.00;0.00;;;30.30;42.90;;;;;;5094875;28;20616;-75
2022/07/27 01:24:06;;;;;;;0.05;0.05;;;30.60;42.60;;;;;;5076376;28;20024;-74
2022/07/27 01:26:35;;;;;;;0.00;0.00;;;30.90;42.20;;;;;;5094465;28;20066;-74
2022/07/27 01:29:01;;;;;;;0.13;0.13;;;31.00;41.80;;;;;;5094379;28;20027;-75
2022/07/27 01:31:28;;;;;;;0.00;0.00;;;30.90;43.10;;;;;;5079843;28;20020;-74
2022/07/27 01:33:54;;;;;;;0.98;0.98;;;30.80;42.90;;;;;;5092988;28;20047;-74
2022/07/27 01:36:20;;;;;;;0.00;0.00;;;30.90;42.40;;;;;;5092574;28;20376;-74
2022/07/27 01:38:46;;;;;;;0.03;0.03;;;30.30;44.20;;;;;;5092336;28;20538;-75
2022/07/27 01:41:12;;;;;;;0.00;0.00;;;30.40;45.30;;;;;;5089703;28;20024;-75
2022/07/27 01:43:39;;;;;;;0.20;0.20;;;30.70;42.70;;;;;;5092723;28;20028;-75
2022/07/27 01:46:05;;;;;;;0.00;0.00;;;31.00;43.60;;;;;;5098268;28;20481;-73
2022/07/27 01:48:32;;;;;;;0.70;0.70;;;31.70;43.40;;;;;;5106028;28;20032;-75
2022/07/27 01:50:58;;;;;;;0.82;0.40;;;31.80;40.30;;;;;;5104273;28;20028;-73
2022/07/27 01:53:24;;;;;;;0.45;0.45;;;32.00;38.90;;;;;;5085691;28;20040;-75
2022/07/27 01:55:50;;;;;;;2.28;1.40;;;32.30;43.20;;;;;;5093994;28;20024;-75
2022/07/27 01:58:17;;;;;;;0.35;0.35;;;32.60;38.20;;;;;;5093790;28;20123;-74
2022/07/27 02:00:44;;;;;;;0.32;0.32;;;32.70;38.30;;;;;;5093690;28;20024;-76
2022/07/27 02:03:10;;;;;;;0.35;0.35;;;33.10;37.50;;;;;;5069264;28;20024;-75
2022/07/27 02:05:37;;;;;;;2.58;2.47;;;33.20;37.00;;;;;;5084318;28;20031;-75
2022/07/27 02:08:05;;;;;;;0.00;0.00;;;33.40;37.70;;;;;;5087641;28;20035;-78
2022/07/27 02:10:31;;;;;;;0.00;0.00;;;33.40;37.20;;;;;;5089917;28;20024;-78
2022/07/27 02:12:57;;;;;;;0.03;0.03;;;33.00;37.50;;;;;;5085556;28;20021;-78
2022/07/27 02:15:27;;;;;;;0.00;0.00;;;32.90;37.10;;;;;;5065769;28;20021;-78
2022/07/27 02:17:54;;;;;;;1.17;1.17;;;32.70;38.30;;;;;;5061735;28;20016;-78
2022/07/27 02:20:24;;;;;;;0.00;0.00;;;32.70;38.80;;;;;;5092192;28;20396;-79
2022/07/27 02:22:50;;;;;;;0.00;0.00;;;32.80;38.50;;;;;;5087260;28;20031;-78
2022/07/27 02:25:18;;;;;;;1.13;0.82;;;32.70;37.50;;;;;;5088495;28;20202;-78
2022/07/27 02:27:45;;;;;;;4.47;0.50;;;33.00;38.60;;;;;;5086156;28;20020;-80
2022/07/27 02:30:12;;;;;;;13.32;2.08;;;33.20;37.00;;;;;;5093022;28;20032;-77
2022/07/27 02:32:41;;;;;;;0.70;0.65;;;32.90;36.70;;;;;;5079245;28;20033;-79
2022/07/27 02:35:07;;;;;;;0.00;0.00;;;32.40;37.70;;;;;;5067300;28;20040;-78
2022/07/27 02:37:33;;;;;;;0.47;0.47;;;32.40;37.70;;;;;;5074754;28;20419;-79
2022/07/27 02:39:59;;;;;;;8.27;6.60;;;32.60;37.60;;;;;;5092200;28;20499;-77
2022/07/27 02:42:25;;;;;;;1.15;1.10;;;32.70;37.40;;;;;;5084645;28;20028;-77
2022/07/27 02:44:51;;;;;;;0.00;0.00;;;32.70;37.50;;;;;;5086192;28;20094;-77
2022/07/27 02:47:17;;;;;;;0.10;0.10;;;32.90;37.40;;;;;;5083795;28;20036;-76
2022/07/27 02:49:43;;;;;;;0.00;0.00;;;33.20;37.30;;;;;;5077964;28;20100;-74
2022/07/27 02:52:09;;;;;;;0.55;0.55;;;33.40;37.70;;;;;;5087349;28;20445;-76
2022/07/27 02:54:35;;;;;;;32.75;5.93;;;33.60;36.50;;;;;;5081629;28;20031;-77
2022/07/27 02:57:01;;;;;;;0.00;0.00;;;34.00;36.30;;;;;;5088032;28;20089;-75
2022/07/27 02:59:27;;;;;;;11.70;1.70;;;34.40;36.10;;;;;;5062153;28;20036;-78
2022/07/27 03:01:54;;;;;;;0.03;0.03;;;34.50;35.50;;;;;;5085256;28;20296;-78
2022/07/27 03:04:20;;;;;;;2.90;1.17;;;34.40;35.70;;;;;;5067208;28;20700;-76
2022/07/27 03:06:46;;;;;;;0.00;0.00;;;34.60;35.90;;;;;;5083362;28;20058;-77
2022/07/27 03:09:12;;;;;;;0.30;0.30;;;34.90;34.80;;;;;;5085815;28;20557;-76
2022/07/27 03:11:38;;;;;;;0.90;0.35;;;35.30;34.80;;;;;;5085637;28;20028;-75
2022/07/27 03:14:04;;;;;;;0.30;0.30;;;35.50;33.10;;;;;;5062867;28;20029;-75
2022/07/27 03:16:30;;;;;;;0.10;0.10;;;35.60;33.50;;;;;;5083702;28;20772;-75
2022/07/27 03:18:57;;;;;;;0.22;0.15;;;35.80;32.40;;;;;;5062989;28;20117;-75
2022/07/27 03:21:23;;;;;;;0.80;0.63;;;36.50;32.60;;;;;;5082298;28;20021;-75
2022/07/27 03:23:49;;;;;;;13.35;2.50;;;36.50;31.00;;;;;;5086377;28;20507;-76
2022/07/27 03:26:17;;;;;;;6.45;2.17;;;36.70;30.90;;;;;;5087956;28;20465;-76
2022/07/27 03:28:43;;;;;;;2.45;1.73;;;36.50;30.40;;;;;;5089216;28;20027;-77
2022/07/27 03:31:09;;;;;;;0.82;0.80;;;36.50;30.00;;;;;;5093790;28;20024;-75
2022/07/27 03:33:35;;;;;;;0.00;0.00;;;36.40;29.80;;;;;;5095444;28;20031;-76
2022/07/27 03:36:01;;;;;;;1.83;1.73;;;36.40;30.50;;;;;;5091339;28;20028;-76
2022/07/27 03:38:28;;;;;;;0.70;0.43;;;36.30;29.90;;;;;;5094021;28;20099;-77
2022/07/27 03:40:54;;;;;;;0.55;0.47;;;37.00;29.00;;;;;;5071072;28;20036;-74
2022/07/27 03:43:20;;;;;;;0.38;0.28;;;36.80;28.80;;;;;;5097042;28;20023;-76
2022/07/27 03:45:46;;;;;;;0.10;0.10;;;36.70;29.00;;;;;;5076397;28;20031;-76
2022/07/27 03:48:13;;;;;;;1.30;0.47;;;36.30;29.30;;;;;;5095125;28;20035;-76
2022/07/27 03:50:39;;;;;;;10.70;2.47;;;35.90;29.60;;;;;;5095630;28;20024;-76
2022/07/27 03:53:05;;;;;;;5.00;2.42;;;35.80;29.50;;;;;;5098011;28;20035;-75
2022/07/27 03:55:31;;;;;;;0.10;0.10;;;35.80;30.10;;;;;;5089118;28;20531;-77
2022/07/27 03:57:57;;;;;;;1.55;1.27;;;35.70;29.90;;;;;;5092706;28;20037;-77
2022/07/27 04:00:23;;;;;;;0.00;0.00;;;35.80;30.60;;;;;;5091484;28;20020;-78
2022/07/27 04:02:50;;;;;;;3.80;1.80;;;35.90;30.70;;;;;;5077589;28;20442;-79
2022/07/27 04:05:16;;;;;;;0.95;0.57;;;36.00;30.10;;;;;;5074311;28;20027;-79
2022/07/27 04:07:42;;;;;;;1.95;1.23;;;36.10;30.10;;;;;;5086548;28;20452;-82
2022/07/27 04:10:09;;;;;;;0.38;0.35;;;35.90;29.40;;;;;;5072359;28;20456;-81
2022/07/27 04:12:36;;;;;;;0.73;0.73;;;35.80;30.00;;;;;;5090627;28;20028;-80
2022/07/27 04:15:04;;;;;;;0.00;0.00;;;35.90;29.70;;;;;;5094102;28;20024;-81
2022/07/27 04:17:30;;;;;;;0.93;0.82;;;36.10;29.80;;;;;;5073535;28;20067;-81
2022/07/27 04:19:56;;;;;;;0.90;0.70;;;36.40;28.90;;;;;;5073689;28;20081;-81
2022/07/27 04:22:22;;;;;;;5.15;1.88;;;36.60;29.20;;;;;;5088940;28;20497;-77
2022/07/27 04:24:48;;;;;;;8.60;3.33;;;36.20;27.80;;;;;;5087132;28;20020;-77
2022/07/27 04:27:21;;;;;;;4.15;0.73;;;36.20;28.60;;;;;;5087383;28;20024;-75
2022/07/27 04:29:47;;;;;;;0.50;0.50;;;36.10;28.90;;;;;;5088298;28;20373;-77
2022/07/27 04:32:13;;;;;;;0.30;0.30;;;36.30;27.90;;;;;;5086186;28;20036;-76
2022/07/27 04:34:39;;;;;;;0.30;0.30;;;36.40;28.40;;;;;;5086399;28;20028;-76
2022/07/27 04:37:05;;;;;;;10.23;0.73;;;36.70;27.90;;;;;;5086490;28;20035;-76
2022/07/27 04:39:31;;;;;;;2.10;1.30;;;36.80;27.30;;;;;;5071597;28;20031;-78
2022/07/27 04:41:57;;;;;;;5.95;1.95;;;36.50;27.20;;;;;;5085908;28;20013;-77
2022/07/27 04:44:23;;;;;;;9.77;1.42;;;36.50;28.00;;;;;;5082436;28;20432;-77
2022/07/27 04:46:49;;;;;;;1.52;1.42;;;36.60;28.10;;;;;;5083500;28;20064;-77
2022/07/27 04:49:15;;;;;;;0.20;0.13;;;36.90;28.10;;;;;;5066925;28;20497;-77
2022/07/27 04:51:43;;;;;;;6.05;0.70;;;37.10;27.20;;;;;;5080176;28;20513;-76
2022/07/27 04:54:09;;;;;;;2.95;1.08;;;37.20;27.50;;;;;;5089806;28;20028;-77
2022/07/27 04:56:35;;;;;;;0.10;0.10;;;37.00;26.90;;;;;;5089042;28;20028;-76
2022/07/27 04:59:01;;;;;;;3.92;1.83;;;36.90;27.40;;;;;;5082964;28;20079;-80
2022/07/27 05:01:27;;;;;;;1.40;0.40;;;36.80;25.30;;;;;;5098651;28;20062;-77
2022/07/27 05:03:53;;;;;;;0.13;0.13;;;36.80;26.80;;;;;;5107922;28;20013;-78
2022/07/27 05:06:19;;;;;;;5.85;0.93;;;36.90;27.00;;;;;;5094417;28;20056;-78
2022/07/27 05:08:45;;;;;;;3.55;0.45;;;37.00;26.90;;;;;;5095605;28;20081;-80
2022/07/27 05:11:11;;;;;;;0.00;0.00;;;37.10;27.00;;;;;;5085696;28;20016;-78
2022/07/27 05:13:41;;;;;;;0.73;0.32;;;37.60;27.30;;;;;;5090049;28;20381;-77
2022/07/27 05:16:09;;;;;;;5.10;1.48;;;37.90;26.80;;;;;;5087018;28;20028;-77
2022/07/27 05:18:36;;;;;;;0.20;0.20;;;37.70;26.50;;;;;;5084274;28;20055;-81
2022/07/27 05:21:03;;;;;;;3.17;1.25;;;37.50;27.30;;;;;;5066402;28;20887;-79
2022/07/27 05:23:29;;;;;;;3.28;1.50;;;37.40;24.50;;;;;;5092473;28;20016;-79
2022/07/27 05:25:55;;;;;;;3.95;1.35;;;37.20;25.10;;;;;;5088060;28;20021;-79
2022/07/27 05:28:21;;;;;;;5.18;0.57;;;37.10;25.20;;;;;;5091041;28;20061;-79
2022/07/27 05:30:47;;;;;;;0.40;0.30;;;37.40;25.80;;;;;;5084490;28;20155;-78
2022/07/27 05:33:13;;;;;;;2.33;0.88;;;37.50;25.20;;;;;;5072518;28;20028;-81
2022/07/27 05:35:39;;;;;;;3.08;1.05;;;37.60;25.20;;;;;;5076513;28;20032;-82
2022/07/27 05:38:05;;;;;;;0.98;0.57;;;37.50;25.50;;;;;;5062892;28;20149;-82
2022/07/27 05:40:31;;;;;;;38.60;2.10;;;37.50;25.90;;;;;;5081025;28;20112;-81
2022/07/27 05:42:58;;;;;;;0.40;0.40;;;37.40;25.70;;;;;;5087638;28;20024;-81
2022/07/27 05:45:25;;;;;;;3.08;1.00;;;37.40;25.80;;;;;;5079875;28;20057;-80
2022/07/27 05:47:53;;;;;;;0.80;0.68;;;37.20;26.10;;;;;;5075656;28;20080;-81
2022/07/27 05:50:19;;;;;;;1.25;0.68;;;37.20;26.10;;;;;;5076011;28;20121;-81
2022/07/27 05:52:45;;;;;;;4.50;1.92;;;37.30;26.20;;;;;;5079483;28;20495;-82
2022/07/27 05:55:12;;;;;;;0.82;0.65;;;37.20;25.60;;;;;;5081756;28;20025;-82
2022/07/27 05:57:40;;;;;;;5.22;1.65;;;37.20;25.70;;;;;;5078499;28;20087;-83
2022/07/27 06:00:07;;;;;;;0.10;0.10;;;37.20;25.80;;;;;;5085204;28;20012;-82
2022/07/27 06:02:33;;;;;;;1.38;1.27;;;37.50;25.70;;;;;;5072360;28;20025;-82
2022/07/27 06:04:59;;;;;;;12.90;4.18;;;37.50;25.50;;;;;;5093594;28;20090;-81
2022/07/27 06:10:10;;;;;;;0.28;0.13;;;37.70;24.80;;;;;;5086086;28;20027;-80
2022/07/27 06:12:44;;;;;;;2.92;1.92;;;37.80;24.60;;;;;;5086543;28;20097;-83
2022/07/27 06:15:10;;;;;;;6.15;2.45;;;37.70;24.80;;;;;;5088416;28;20123;-81
2022/07/27 06:17:37;;;;;;;2.53;1.10;;;37.70;24.40;;;;;;5093061;28;20024;-81
2022/07/27 06:20:04;;;;;;;8.40;1.98;;;37.70;24.50;;;;;;5088834;28;20027;-80
2022/07/27 06:22:30;;;;;;;1.08;0.75;;;37.70;24.60;;;;;;5087794;28;20020;-80
2022/07/27 06:24:57;;;;;;;3.67;1.70;;;37.80;24.60;;;;;;5065992;28;20020;-80
2022/07/27 06:27:23;;;;;;;2.65;1.02;;;38.00;25.10;;;;;;5066561;28;20110;-84
2022/07/27 06:29:49;;;;;;;0.50;0.50;;;38.20;24.50;;;;;;5061841;28;20408;-80
2022/07/27 06:32:18;;;;;;;1.30;0.35;;;38.10;24.50;;;;;;5090826;28;20031;-81
2022/07/27 06:34:44;;;;;;;2.83;1.45;;;37.90;26.20;;;;;;5082425;28;20031;-82
2022/07/27 06:37:10;;;;;;;9.25;1.20;;;38.00;26.90;;;;;;5066815;28;20031;-75
2022/07/27 06:39:36;;;;;;;1.92;0.30;;;38.20;27.50;;;;;;5091121;28;20031;-76
2022/07/27 06:42:02;;;;;;;1.30;0.60;;;38.10;27.30;;;;;;5088915;28;20016;-75
2022/07/27 06:44:28;;;;;;;3.20;0.68;;;38.20;26.80;;;;;;5084067;28;20473;-75
2022/07/27 06:46:54;;;;;;;2.85;0.60;;;38.10;27.10;;;;;;5085269;28;20016;-75
2022/07/27 06:49:20;;;;;;;0.65;0.65;;;38.20;26.90;;;;;;5079838;28;20495;-75
2022/07/27 06:51:46;;;;;;;0.10;0.10;;;38.10;27.30;;;;;;5086246;28;20043;-75
2022/07/27 06:54:13;;;;;;;0.00;0.00;;;38.00;28.10;;;;;;5084681;28;20027;-75
2022/07/27 06:56:39;;;;;;;0.00;0.00;;;38.10;27.30;;;;;;5066796;28;20081;-75
2022/07/27 06:59:04;;;;;;;6.18;1.77;;;38.30;27.40;;;;;;5052532;28;20044;-73
2022/07/27 07:01:31;;;;;;;0.00;0.00;;;38.40;27.10;;;;;;5062142;28;20025;-74
2022/07/27 07:03:58;;;;;;;1.38;0.32;;;38.60;26.10;;;;;;5063291;28;20020;-74
2022/07/27 07:06:25;;;;;;;0.30;0.20;;;38.80;23.60;;;;;;5067305;28;20036;-75
2022/07/27 07:08:51;;;;;;;0.00;0.00;;;38.70;23.20;;;;;;5060311;28;20020;-75
2022/07/27 07:11:17;;;;;;;7.57;3.63;;;38.80;23.50;;;;;;5062177;28;20025;-75
2022/07/27 07:13:43;;;;;;;0.00;0.00;;;38.70;24.40;;;;;;5060479;28;20115;-74
2022/07/27 07:16:09;;;;;;;0.00;0.00;;;38.70;24.60;;;;;;5068826;28;20114;-75
2022/07/27 07:18:35;;;;;;;1.45;0.73;;;38.70;25.10;;;;;;5066062;28;20029;-75
2022/07/27 07:21:01;;;;;;;0.45;0.43;;;38.30;24.50;;;;;;5068974;28;20016;-74
2022/07/27 07:23:27;;;;;;;2.88;2.72;;;38.20;24.70;;;;;;5069304;28;20338;-73
2022/07/27 07:25:53;;;;;;;0.28;0.28;;;38.20;25.10;;;;;;5065995;28;20020;-73
2022/07/27 07:28:25;;;;;;;10.52;1.73;;;38.20;24.90;;;;;;5062836;28;20028;-74
2022/07/27 07:30:51;;;;;;;6.25;3.50;;;38.40;25.10;;;;;;5043912;28;20060;-73
2022/07/27 07:33:17;;;;;;;0.00;0.00;;;38.60;25.10;;;;;;5064861;28;20056;-76
2022/07/27 07:35:49;;;;;;;1.55;1.45;;;38.80;25.60;;;;;;5061046;28;20462;-76
2022/07/27 07:38:15;;;;;;;0.00;0.00;;;39.10;25.10;;;;;;5059440;28;20046;-76
2022/07/27 07:40:41;;;;;;;4.63;4.40;;;39.10;24.60;;;;;;5062474;28;20021;-75
2022/07/27 07:43:07;;;;;;;0.00;0.00;;;39.10;25.00;;;;;;5067318;28;20020;-75
2022/07/27 07:45:41;;;;;;;0.00;0.00;;;39.10;23.90;;;;;;5045295;28;20028;-76
2022/07/27 07:48:07;;;;;;;0.00;0.00;;;39.20;23.80;;;;;;5068213;28;20032;-79
2022/07/27 07:50:33;;;;;;;2.63;0.50;;;39.30;27.00;;;;;;5068218;28;20115;-75
2022/07/27 07:52:59;;;;;;;0.20;0.20;;;38.80;29.90;;;;;;5065601;28;20033;-75
2022/07/27 07:55:27;;;;;;;0.40;0.25;;;38.80;30.60;;;;;;5060902;28;20469;-76
2022/07/27 07:57:54;;;;;;;0.25;0.25;;;38.80;30.70;;;;;;5071767;28;20044;-77
2022/07/27 08:00:21;;;;;;;3.42;2.72;;;39.00;30.50;;;;;;5068581;28;20031;-78
2022/07/27 08:02:47;;;;;;;1.63;1.25;;;38.80;30.90;;;;;;5091253;28;20023;-81
2022/07/27 08:05:14;;;;;;;1.35;1.25;;;38.80;30.60;;;;;;5081195;28;20020;-79
2022/07/27 08:07:41;;;;;;;1.00;0.95;;;38.70;31.00;;;;;;5083773;28;20051;-79
2022/07/27 08:10:20;;;;;;;6.90;3.60;;;38.50;30.90;;;;;;5075570;28;20028;-77
2022/07/27 08:12:52;;;;;;;0.85;0.57;;;38.60;30.10;;;;;;5084174;28;20047;-78
2022/07/27 08:15:23;;;;;;;0.65;0.65;;;38.40;30.20;;;;;;5076055;28;20087;-78
2022/07/27 08:17:51;;;;;;;0.75;0.45;;;38.30;30.60;;;;;;5106857;28;20330;-76
2022/07/27 08:20:18;;;;;;;17.55;2.60;;;38.50;30.70;;;;;;5073259;28;20055;-75
2022/07/27 08:22:44;;;;;;;0.00;0.00;;;38.10;31.60;;;;;;5086195;28;20496;-75
2022/07/27 08:25:11;;;;;;;0.05;0.05;;;38.10;30.50;;;;;;5085138;28;20052;-77
2022/07/27 08:27:37;;;;;;;0.43;0.43;;;38.00;30.20;;;;;;5086300;28;20094;-80
2022/07/27 08:30:07;;;;;;;1.02;0.30;;;37.70;30.50;;;;;;5088159;28;20020;-77
2022/07/27 08:32:52;;;;;;;0.17;0.17;;;37.90;30.10;;;;;;5085737;28;20077;-76
2022/07/27 08:35:19;;;;;;;34.75;2.63;;;38.00;30.00;;;;;;5093785;28;20492;-77
2022/07/27 08:37:48;;;;;;;0.32;0.32;;;38.00;30.00;;;;;;5092466;28;20521;-78
2022/07/27 08:40:15;;;;;;;0.00;0.00;;;38.40;30.10;;;;;;5085572;28;20032;-75
2022/07/27 08:43:25;;;;;;;0.47;0.45;;;38.60;30.30;;;;;;5082651;28;20085;-78
2022/07/27 08:45:59;;;;;;;0.00;0.00;;;38.30;31.10;;;;;;5057236;28;20059;-77
2022/07/27 08:48:27;;;;;;;3.72;1.98;;;38.40;30.70;;;;;;5093542;28;20028;-77
2022/07/27 08:50:54;;;;;;;0.00;0.00;;;38.50;30.00;;;;;;5073920;28;20114;-75
2022/07/27 08:53:21;;;;;;;1.10;0.65;;;38.30;29.90;;;;;;5084059;28;20107;-75
2022/07/27 08:55:47;;;;;;;9.75;2.80;;;38.30;29.70;;;;;;5087459;28;20633;-76
2022/07/27 08:58:14;;;;;;;0.10;0.10;;;38.10;29.90;;;;;;5092838;28;20040;-75
2022/07/27 09:00:43;;;;;;;0.35;0.32;;;38.20;30.00;;;;;;5072384;28;20432;-78
2022/07/27 09:03:11;;;;;;;0.75;0.25;;;38.40;29.90;;;;;;5087119;28;20038;-78
2022/07/27 09:05:51;;;;;;;0.00;0.00;;;38.50;29.90;;;;;;5093836;28;20111;-76
2022/07/27 09:08:24;;;;;;;0.10;0.10;;;38.60;29.50;;;;;;5081094;28;20491;-77
2022/07/27 09:10:55;;;;;;;0.50;0.50;;;38.60;29.60;;;;;;5081565;28;20023;-76
2022/07/27 09:13:29;;;;;;;0.00;0.00;;;38.70;29.80;;;;;;5082979;28;20068;-76
2022/07/27 09:15:59;;;;;;;0.00;0.00;;;38.50;30.00;;;;;;5083913;28;20124;-76
2022/07/27 09:18:29;;;;;;;0.00;0.00;;;38.60;29.80;;;;;;5085419;28;20020;-76
2022/07/27 09:21:09;;;;;;;1.73;0.77;;;38.70;29.60;;;;;;5069159;28;20108;-76
2022/07/27 09:23:35;;;;;;;3.72;0.98;;;38.40;29.70;;;;;;5084309;28;20368;-76
2022/07/27 09:26:18;;;;;;;0.10;0.10;;;38.20;30.00;;;;;;5083392;28;20031;-76
2022/07/27 09:28:44;;;;;;;0.32;0.20;;;37.90;30.50;;;;;;5086077;28;20085;-76
2022/07/27 09:31:29;;;;;;;;;;;;;;;;;;;;;
2022/07/27 09:34:01;;;;;;;2.72;1.70;;;37.70;30.50;;;;;;5085628;28;20020;-75
2022/07/27 09:36:29;;;;;;;1.45;1.35;;;38.00;30.20;;;;;;5086984;28;20465;-78
2022/07/27 09:39:05;;;;;;;0.20;0.20;;;38.30;29.80;;;;;;5074896;28;20548;-75
2022/07/27 09:41:47;;;;;;;0.38;0.38;;;38.40;29.30;;;;;;5086529;28;20028;-75
2022/07/27 09:44:13;;;;;;;0.38;0.20;;;38.30;29.40;;;;;;5073061;28;20389;-75
2022/07/27 09:46:41;;;;;;;8.07;1.80;;;37.90;29.10;;;;;;5072191;28;20111;-74
2022/07/27 09:49:32;;;;;;;0.15;0.15;;;37.70;29.10;;;;;;5090539;28;20016;-74
2022/07/27 09:52:00;;;;;;;0.10;0.10;;;37.70;29.20;;;;;;5085816;28;20400;-76
2022/07/27 09:54:27;;;;;;;0.43;0.43;;;37.70;29.30;;;;;;5079522;28;20066;-76
2022/07/27 09:57:01;;;;;;;0.65;0.25;;;37.90;29.40;;;;;;5084628;28;20137;-75
2022/07/27 09:59:28;;;;;;;0.90;0.90;;;37.70;29.50;;;;;;5069756;28;20059;-75
2022/07/27 10:01:55;;;;;;;0.10;0.10;;;37.80;29.30;;;;;;5065570;28;20454;-74
2022/07/27 10:04:23;;;;;;;17.25;4.35;;;37.80;28.70;;;;;;5087993;28;20012;-74
2022/07/27 10:06:49;;;;;;;0.38;0.38;;;37.70;28.90;;;;;;5088994;28;20096;-76
2022/07/27 10:09:18;;;;;;;0.55;0.28;;;37.70;29.00;;;;;;5090133;28;20024;-75
2022/07/27 10:11:48;;;;;;;1.48;1.15;;;37.80;29.20;;;;;;5080216;28;20020;-75
2022/07/27 10:14:15;;;;;;;0.45;0.05;;;37.70;29.40;;;;;;5084773;28;20040;-75
2022/07/27 10:16:42;;;;;;;0.00;0.00;;;37.80;29.20;;;;;;5090814;28;20049;-75
2022/07/27 10:19:49;;;;;;;1.30;1.25;;;37.70;28.30;;;;;;5083120;28;20035;-76
2022/07/27 10:22:36;;;;;;;0.00;0.00;;;37.70;28.30;;;;;;4999973;28;20088;-75
2022/07/27 10:25:02;;;;;;;0.10;0.10;;;37.80;28.60;;;;;;5077700;28;20510;-75
2022/07/27 10:27:28;;;;;;;0.00;0.00;;;37.80;28.20;;;;;;5091125;28;20069;-75
2022/07/27 10:29:56;;;;;;;0.08;0.08;;;37.90;28.90;;;;;;5078017;28;20056;-75
2022/07/27 10:32:33;;;;;;;0.00;0.00;;;37.70;28.70;;;;;;5070375;28;20178;-75
2022/07/27 10:35:00;;;;;;;0.13;0.13;;;37.80;28.80;;;;;;5075795;28;20370;-75
2022/07/27 10:37:31;;;;;;;0.00;0.00;;;37.70;28.50;;;;;;5077066;28;20020;-74
2022/07/27 10:43:06;;;;;;;0.00;0.00;;;37.70;28.00;;;;;;5084307;28;20456;-75
2022/07/27 10:45:48;;;;;;;0.10;0.10;;;37.60;27.80;;;;;;5078722;28;20035;-74
2022/07/27 10:48:33;;;;;;;2.13;0.52;;;37.60;27.50;;;;;;5084863;28;20024;-76
2022/07/27 10:50:59;;;;;;;0.22;0.15;;;37.60;27.20;;;;;;5066250;28;20024;-75
2022/07/27 10:53:37;;;;;;;0.00;0.00;;;37.50;27.50;;;;;;5080996;28;20116;-74
2022/07/27 10:56:05;;;;;;;0.57;0.10;;;37.50;27.70;;;;;;5077099;28;20081;-75
2022/07/27 10:58:31;;;;;;;0.32;0.32;;;37.60;28.00;;;;;;5080526;28;20123;-75
2022/07/27 11:01:02;;;;;;;0.00;0.00;;;37.50;27.90;;;;;;5077218;28;20062;-75
2022/07/27 11:03:34;;;;;;;1.90;1.85;;;37.40;27.60;;;;;;5080499;28;20533;-75
2022/07/27 11:06:08;;;;;;;0.13;0.13;;;37.50;27.70;;;;;;5082585;28;20357;-74
2022/07/27 11:08:37;;;;;;;0.00;0.00;;;37.60;27.80;;;;;;5086535;28;20092;-74
2022/07/27 11:11:04;;;;;;;0.00;0.00;;;37.50;27.80;;;;;;5065371;28;20032;-74
2022/07/27 11:13:31;;;;;;;13.75;6.65;;;37.40;27.70;;;;;;5082186;28;20048;-76
2022/07/27 11:15:59;;;;;;;0.00;0.00;;;37.40;27.90;;;;;;5074834;28;20055;-76
2022/07/27 11:18:27;;;;;;;0.00;0.00;;;37.20;28.00;;;;;;5077511;28;20023;-77
2022/07/27 11:21:11;;;;;;;0.10;0.10;;;36.90;28.50;;;;;;5077572;28;20436;-77
2022/07/27 11:23:37;;;;;;;0.00;0.00;;;36.70;28.60;;;;;;5080994;28;20034;-77
2022/07/27 11:26:03;;;;;;;0.95;0.95;;;36.90;28.50;;;;;;5077648;28;20087;-79
2022/07/27 11:28:31;;;;;;;0.00;0.00;;;36.70;28.60;;;;;;5088235;28;20031;-80
2022/07/27 11:30:58;;;;;;;0.00;0.00;;;36.90;28.70;;;;;;5089260;28;20042;-79
2022/07/27 11:33:26;;;;;;;5.10;1.02;;;37.10;28.80;;;;;;5078292;28;20378;-79
2022/07/27 11:35:53;;;;;;;0.13;0.13;;;37.30;28.50;;;;;;5072146;28;20119;-79
2022/07/27 11:38:20;;;;;;;0.00;0.00;;;37.30;28.90;;;;;;5053466;28;20124;-79
2022/07/27 11:40:56;;;;;;;0.00;0.00;;;37.20;28.70;;;;;;5053192;28;20019;-79
2022/07/27 11:43:35;;;;;;;3.63;0.55;;;37.20;28.70;;;;;;5043578;28;20126;-78
2022/07/27 11:46:19;;;;;;;32.58;29.92;;;37.10;28.90;;;;;;5078803;28;20039;-78
2022/07/27 11:49:03;;;;;;;0.17;0.17;;;36.90;29.10;;;;;;5072670;28;20047;-79
2022/07/27 11:51:29;;;;;;;0.45;0.25;;;36.80;28.90;;;;;;5091348;28;20027;-79
2022/07/27 11:53:58;;;;;;;0.00;0.00;;;36.80;28.80;;;;;;5077125;28;20514;-79
2022/07/27 11:56:25;;;;;;;1.17;1.17;;;36.70;29.10;;;;;;5083569;28;20055;-78
2022/07/27 11:59:06;;;;;;;0.30;0.30;;;36.60;28.90;;;;;;5084575;28;20125;-79
2022/07/27 12:01:34;;;;;;;4.75;1.20;;;36.60;28.80;;;;;;5070642;28;20039;-80
2022/07/27 12:04:21;;;;;;;0.73;0.43;;;36.30;28.90;;;;;;5090590;28;20154;-79
2022/07/27 12:06:59;;;;;;;0.00;0.00;;;36.20;29.20;;;;;;5091742;28;20027;-79
2022/07/27 12:09:26;;;;;;;0.00;0.00;;;36.20;29.40;;;;;;5082955;28;20024;-79
2022/07/27 12:12:15;;;;;;;0.38;0.38;;;36.20;29.70;;;;;;5083200;28;20131;-79
2022/07/27 12:14:49;;;;;;;0.00;0.00;;;36.20;29.60;;;;;;5082356;28;20020;-79
2022/07/27 12:17:35;;;;;;;16.60;2.10;;;36.20;29.20;;;;;;5065499;28;20554;-80
2022/07/27 12:20:06;;;;;;;3.42;1.08;;;36.00;29.20;;;;;;5068065;28;20470;-79
2022/07/27 12:22:47;;;;;;;12.07;0.85;;;36.00;29.40;;;;;;5069150;28;20031;-79
2022/07/27 12:25:16;;;;;;;12.82;10.50;;;35.90;29.60;;;;;;5099879;28;20016;-76
2022/07/27 12:28:12;;;;;;;0.05;0.05;;;36.00;29.80;;;;;;5093430;28;20441;-79
2022/07/27 12:30:49;;;;;;;0.63;0.63;;;36.00;30.00;;;;;;5065949;28;20031;-79
2022/07/27 12:33:37;;;;;;;0.15;0.13;;;36.10;29.90;;;;;;5093756;28;20376;-78
2022/07/27 12:36:08;;;;;;;2.65;0.63;;;36.00;29.90;;;;;;5073707;28;20031;-80
2022/07/27 12:38:42;;;;;;;0.00;0.00;;;36.00;30.00;;;;;;5072555;28;20020;-78
2022/07/27 12:41:08;;;;;;;1.38;1.27;;;35.70;30.10;;;;;;5072801;28;20373;-78
2022/07/27 12:43:35;;;;;;;0.00;0.00;;;35.80;30.30;;;;;;5087351;28;20035;-73
2022/07/27 12:46:11;;;;;;;0.00;0.00;;;35.80;30.50;;;;;;5090064;28;20537;-73
2022/07/27 12:48:40;;;;;;;0.20;0.20;;;36.00;30.60;;;;;;5090101;28;20153;-72
2022/07/27 12:51:08;;;;;;;0.00;0.00;;;35.80;30.70;;;;;;5093349;28;20480;-73
2022/07/27 12:53:35;;;;;;;0.00;0.00;;;35.80;30.70;;;;;;5089755;28;20038;-74
2022/07/27 12:56:06;;;;;;;0.10;0.10;;;35.90;30.70;;;;;;5090914;28;20063;-74
2022/07/27 12:58:33;;;;;;;6.43;1.98;;;35.90;30.60;;;;;;5086471;28;20539;-78
2022/07/27 13:00:59;;;;;;;0.00;0.00;;;35.90;30.50;;;;;;5086381;28;20104;-78
2022/07/27 13:03:25;;;;;;;0.00;0.00;;;35.80;30.40;;;;;;5084537;28;20499;-77